sensor_id;sensor_type;location;lat;lon;timestamp;pressure;altitude;pressure_sealevel;temperature;humidity
70976;BME280;58635;51.198;6.010;2023-07-16T00:00:59;100814.00;;;24.19;55.52
70976;BME280;58635;51.198;6.010;2023-07-16T00:03:25;100817.75;;;24.13;55.69
70976;BME280;58635;51.198;6.010;2023-07-16T00:05:52;100818.91;;;24.07;55.92
70976;BME280;58635;51.198;6.010;2023-07-16T00:08:18;100813.94;;;24.01;56.32
70976;BME280;58635;51.198;6.010;2023-07-16T00:10:44;100815.81;;;24.00;56.18
70976;BME280;58635;51.198;6.010;2023-07-16T00:13:11;100812.66;;;23.98;56.71
70976;BME280;58635;51.198;6.010;2023-07-16T00:15:37;100813.25;;;23.95;56.49
70976;BME280;58635;51.198;6.010;2023-07-16T00:18:03;100823.53;;;23.97;56.53
70976;BME280;58635;51.198;6.010;2023-07-16T00:20:32;100813.25;;;23.95;56.65
70976;BME280;58635;51.198;6.010;2023-07-16T00:22:59;100811.38;;;23.96;56.65
70976;BME280;58635;51.198;6.010;2023-07-16T00:25:25;100805.81;;;23.97;56.77
70976;BME280;58635;51.198;6.010;2023-07-16T00:27:51;100805.81;;;23.97;56.62
70976;BME280;58635;51.198;6.010;2023-07-16T00:30:18;100797.88;;;23.97;56.47
70976;BME280;58635;51.198;6.010;2023-07-16T00:32:44;100805.03;;;23.97;56.44
70976;BME280;58635;51.198;6.010;2023-07-16T00:35:10;100803.47;;;23.96;56.52
70976;BME280;58635;51.198;6.010;2023-07-16T00:37:37;100804.81;;;23.93;56.47
70976;BME280;58635;51.198;6.010;2023-07-16T00:40:04;100806.13;;;23.90;56.42
70976;BME280;58635;51.198;6.010;2023-07-16T00:42:30;100810.13;;;23.88;56.64
70976;BME280;58635;51.198;6.010;2023-07-16T00:44:57;100811.78;;;23.84;57.04
70976;BME280;58635;51.198;6.010;2023-07-16T00:47:23;100810.19;;;23.83;56.75
70976;BME280;58635;51.198;6.010;2023-07-16T00:49:50;100806.53;;;23.79;56.85
70976;BME280;58635;51.198;6.010;2023-07-16T00:52:18;100805.53;;;23.75;56.65
70976;BME280;58635;51.198;6.010;2023-07-16T00:54:47;100803.75;;;23.70;56.94
70976;BME280;58635;51.198;6.010;2023-07-16T00:57:14;100800.06;;;23.66;56.87
70976;BME280;58635;51.198;6.010;2023-07-16T00:59:40;100800.34;;;23.65;56.68
70976;BME280;58635;51.198;6.010;2023-07-16T01:02:07;100802.78;;;23.61;57.09
70976;BME280;58635;51.198;6.010;2023-07-16T01:04:33;100797.78;;;23.59;56.34
70976;BME280;58635;51.198;6.010;2023-07-16T01:07:01;100809.66;;;23.57;56.69
70976;BME280;58635;51.198;6.010;2023-07-16T01:09:30;100819.75;;;23.50;56.36
70976;BME280;58635;51.198;6.010;2023-07-16T01:11:57;100814.78;;;23.43;56.55
70976;BME280;58635;51.198;6.010;2023-07-16T01:14:27;100812.97;;;23.39;56.49
70976;BME280;58635;51.198;6.010;2023-07-16T01:16:53;100802.69;;;23.37;56.11
70976;BME280;58635;51.198;6.010;2023-07-16T01:19:25;100806.69;;;23.34;55.77
70976;BME280;58635;51.198;6.010;2023-07-16T01:25:01;100812.28;;;23.28;55.77
70976;BME280;58635;51.198;6.010;2023-07-16T01:30:16;100828.81;;;23.10;55.92
70976;BME280;58635;51.198;6.010;2023-07-16T01:32:46;100825.69;;;23.02;56.23
70976;BME280;58635;51.198;6.010;2023-07-16T01:35:13;100820.94;;;22.99;56.44
70976;BME280;58635;51.198;6.010;2023-07-16T01:37:41;100818.31;;;22.99;56.22
70976;BME280;58635;51.198;6.010;2023-07-16T01:40:08;100815.69;;;22.99;55.96
70976;BME280;58635;51.198;6.010;2023-07-16T01:42:35;100816.47;;;23.00;56.04
70976;BME280;58635;51.198;6.010;2023-07-16T01:45:01;100821.75;;;23.00;56.19
70976;BME280;58635;51.198;6.010;2023-07-16T01:49:55;100828.09;;;22.99;56.17
70976;BME280;58635;51.198;6.010;2023-07-16T01:52:22;100828.34;;;22.97;56.21
70976;BME280;58635;51.198;6.010;2023-07-16T01:54:48;100827.81;;;22.95;56.19
70976;BME280;58635;51.198;6.010;2023-07-16T01:57:14;100820.97;;;22.94;56.02
70976;BME280;58635;51.198;6.010;2023-07-16T01:59:41;100828.66;;;22.91;55.66
70976;BME280;58635;51.198;6.010;2023-07-16T02:02:07;100831.06;;;22.87;56.38
70976;BME280;58635;51.198;6.010;2023-07-16T02:04:33;100826.31;;;22.84;56.28
70976;BME280;58635;51.198;6.010;2023-07-16T02:07:00;100831.84;;;22.83;56.44
70976;BME280;58635;51.198;6.010;2023-07-16T02:09:26;100829.19;;;22.83;56.07
70976;BME280;58635;51.198;6.010;2023-07-16T02:11:52;100832.09;;;22.81;56.39
70976;BME280;58635;51.198;6.010;2023-07-16T02:14:19;100842.66;;;22.81;55.91
70976;BME280;58635;51.198;6.010;2023-07-16T02:16:45;100846.91;;;22.77;56.06
70976;BME280;58635;51.198;6.010;2023-07-16T02:19:12;100839.28;;;22.75;56.35
70976;BME280;58635;51.198;6.010;2023-07-16T02:21:38;100842.44;;;22.72;56.24
70976;BME280;58635;51.198;6.010;2023-07-16T02:24:05;100842.72;;;22.71;56.25
70976;BME280;58635;51.198;6.010;2023-07-16T02:26:31;100845.91;;;22.68;56.42
70976;BME280;58635;51.198;6.010;2023-07-16T02:28:58;100845.16;;;22.62;56.70
70976;BME280;58635;51.198;6.010;2023-07-16T02:31:25;100855.19;;;22.55;56.64
70976;BME280;58635;51.198;6.010;2023-07-16T02:33:52;100856.31;;;22.44;57.13
70976;BME280;58635;51.198;6.010;2023-07-16T02:36:18;100865.81;;;22.40;57.12
70976;BME280;58635;51.198;6.010;2023-07-16T02:38:44;100871.34;;;22.38;57.04
70976;BME280;58635;51.198;6.010;2023-07-16T02:41:11;100863.97;;;22.35;56.88
70976;BME280;58635;51.198;6.010;2023-07-16T02:43:37;100869.00;;;22.32;56.78
70976;BME280;58635;51.198;6.010;2023-07-16T02:46:03;100865.59;;;22.26;56.83
70976;BME280;58635;51.198;6.010;2023-07-16T02:48:30;100870.59;;;22.23;56.41
70976;BME280;58635;51.198;6.010;2023-07-16T02:50:56;100876.97;;;22.16;56.59
70976;BME280;58635;51.198;6.010;2023-07-16T02:53:23;100875.13;;;22.07;56.64
70976;BME280;58635;51.198;6.010;2023-07-16T02:55:49;100880.38;;;22.02;56.41
70976;BME280;58635;51.198;6.010;2023-07-16T02:58:15;100874.59;;;21.95;56.45
70976;BME280;58635;51.198;6.010;2023-07-16T03:00:42;100880.66;;;21.90;56.35
70976;BME280;58635;51.198;6.010;2023-07-16T03:03:08;100880.13;;;21.88;56.27
70976;BME280;58635;51.198;6.010;2023-07-16T03:05:34;100880.91;;;21.88;56.07
70976;BME280;58635;51.198;6.010;2023-07-16T03:08:01;100886.19;;;21.88;56.33
70976;BME280;58635;51.198;6.010;2023-07-16T03:10:27;100882.78;;;21.88;56.00
70976;BME280;58635;51.198;6.010;2023-07-16T03:12:54;100886.97;;;21.89;55.95
70976;BME280;58635;51.198;6.010;2023-07-16T03:15:21;100889.88;;;21.93;55.69
70976;BME280;58635;51.198;6.010;2023-07-16T03:17:47;100889.09;;;21.92;55.72
70976;BME280;58635;51.198;6.010;2023-07-16T03:20:13;100894.09;;;21.88;55.73
70976;BME280;58635;51.198;6.010;2023-07-16T03:22:54;100895.16;;;21.87;55.74
70976;BME280;58635;51.198;6.010;2023-07-16T03:25:20;100901.72;;;21.90;55.52
70976;BME280;58635;51.198;6.010;2023-07-16T03:27:47;100899.09;;;21.90;55.58
70976;BME280;58635;51.198;6.010;2023-07-16T03:30:13;100902.53;;;21.85;54.49
70976;BME280;58635;51.198;6.010;2023-07-16T03:32:40;100914.13;;;21.79;54.68
70976;BME280;58635;51.198;6.010;2023-07-16T03:35:06;100916.22;;;21.72;54.54
70976;BME280;58635;51.198;6.010;2023-07-16T03:37:33;100919.66;;;21.68;54.41
70976;BME280;58635;51.198;6.010;2023-07-16T03:40:15;100921.25;;;21.69;54.31
70976;BME280;58635;51.198;6.010;2023-07-16T03:42:42;100928.06;;;21.65;54.18
70976;BME280;58635;51.198;6.010;2023-07-16T03:45:10;100924.66;;;21.69;54.29
70976;BME280;58635;51.198;6.010;2023-07-16T03:47:37;100938.09;;;21.73;54.04
70976;BME280;58635;51.198;6.010;2023-07-16T03:50:03;100944.66;;;21.75;53.90
70976;BME280;58635;51.198;6.010;2023-07-16T03:52:30;100948.06;;;21.76;53.95
70976;BME280;58635;51.198;6.010;2023-07-16T03:54:56;100950.44;;;21.77;53.98
70976;BME280;58635;51.198;6.010;2023-07-16T03:57:22;100950.19;;;21.79;53.96
70976;BME280;58635;51.198;6.010;2023-07-16T03:59:49;100951.00;;;21.79;53.67
70976;BME280;58635;51.198;6.010;2023-07-16T04:02:15;100963.63;;;21.82;53.71
70976;BME280;58635;51.198;6.010;2023-07-16T04:04:41;100956.50;;;21.83;53.81
70976;BME280;58635;51.198;6.010;2023-07-16T04:07:08;100966.25;;;21.82;53.58
70976;BME280;58635;51.198;6.010;2023-07-16T04:09:37;100960.47;;;21.80;53.38
70976;BME280;58635;51.198;6.010;2023-07-16T04:12:05;100966.25;;;21.77;53.51
70976;BME280;58635;51.198;6.010;2023-07-16T04:14:32;100965.72;;;21.70;53.05
70976;BME280;58635;51.198;6.010;2023-07-16T04:16:58;100968.09;;;21.62;53.01
70976;BME280;58635;51.198;6.010;2023-07-16T04:19:25;100967.81;;;21.58;53.07
70976;BME280;58635;51.198;6.010;2023-07-16T04:21:51;100964.41;;;21.57;52.88
70976;BME280;58635;51.198;6.010;2023-07-16T04:24:18;100972.56;;;21.56;53.02
70976;BME280;58635;51.198;6.010;2023-07-16T04:26:44;100979.16;;;21.58;53.18
70976;BME280;58635;51.198;6.010;2023-07-16T04:29:10;100971.50;;;21.62;52.98
70976;BME280;58635;51.198;6.010;2023-07-16T04:31:37;100970.97;;;21.65;52.68
70976;BME280;58635;51.198;6.010;2023-07-16T04:34:03;100975.75;;;21.68;52.85
70976;BME280;58635;51.198;6.010;2023-07-16T04:36:29;100982.06;;;21.67;52.77
70976;BME280;58635;51.198;6.010;2023-07-16T04:38:56;100979.16;;;21.69;52.61
70976;BME280;58635;51.198;6.010;2023-07-16T04:41:22;100984.94;;;21.71;52.70
70976;BME280;58635;51.198;6.010;2023-07-16T04:43:48;100983.88;;;21.72;52.61
70976;BME280;58635;51.198;6.010;2023-07-16T04:46:15;100990.72;;;21.73;52.56
70976;BME280;58635;51.198;6.010;2023-07-16T04:48:42;100994.69;;;21.70;52.49
70976;BME280;58635;51.198;6.010;2023-07-16T04:51:08;100990.97;;;21.66;52.66
70976;BME280;58635;51.198;6.010;2023-07-16T04:53:35;100995.97;;;21.63;52.57
70976;BME280;58635;51.198;6.010;2023-07-16T04:56:01;101003.63;;;21.64;52.53
70976;BME280;58635;51.198;6.010;2023-07-16T04:58:28;100999.94;;;21.70;52.36
70976;BME280;58635;51.198;6.010;2023-07-16T05:00:54;101000.47;;;21.77;52.24
70976;BME280;58635;51.198;6.010;2023-07-16T05:03:21;101010.22;;;21.87;51.97
70976;BME280;58635;51.198;6.010;2023-07-16T05:05:47;101017.09;;;21.93;51.92
70976;BME280;58635;51.198;6.010;2023-07-16T05:08:13;101008.38;;;21.98;51.45
70976;BME280;58635;51.198;6.010;2023-07-16T05:10:40;101017.88;;;22.04;50.89
70976;BME280;58635;51.198;6.010;2023-07-16T05:13:06;101014.97;;;22.00;51.08
70976;BME280;58635;51.198;6.010;2023-07-16T05:15:32;101018.94;;;22.03;50.85
70976;BME280;58635;51.198;6.010;2023-07-16T05:17:59;101017.91;;;22.09;50.37
70976;BME280;58635;51.198;6.010;2023-07-16T05:20:25;101018.94;;;22.08;50.18
70976;BME280;58635;51.198;6.010;2023-07-16T05:22:51;101025.28;;;22.17;50.31
70976;BME280;58635;51.198;6.010;2023-07-16T05:25:18;101030.25;;;22.24;49.65
70976;BME280;58635;51.198;6.010;2023-07-16T05:27:44;101025.25;;;22.32;49.72
70976;BME280;58635;51.198;6.010;2023-07-16T05:30:11;101030.00;;;22.40;49.48
70976;BME280;58635;51.198;6.010;2023-07-16T05:32:37;101034.19;;;22.46;49.23
70976;BME280;58635;51.198;6.010;2023-07-16T05:35:04;101032.59;;;22.56;49.25
70976;BME280;58635;51.198;6.010;2023-07-16T05:37:31;101027.56;;;22.69;48.80
70976;BME280;58635;51.198;6.010;2023-07-16T05:39:57;101030.16;;;22.90;48.46
70976;BME280;58635;51.198;6.010;2023-07-16T05:42:23;101033.00;;;23.03;48.00
70976;BME280;58635;51.198;6.010;2023-07-16T05:44:50;101040.84;;;23.24;47.72
70976;BME280;58635;51.198;6.010;2023-07-16T05:47:16;101036.00;;;23.41;47.32
70976;BME280;58635;51.198;6.010;2023-07-16T05:49:43;101054.66;;;23.55;46.42
70976;BME280;58635;51.198;6.010;2023-07-16T05:52:09;101040.69;;;23.59;46.67
70976;BME280;58635;51.198;6.010;2023-07-16T05:54:35;101060.97;;;23.64;46.29
70976;BME280;58635;51.198;6.010;2023-07-16T05:57:02;101058.78;;;23.76;46.22
70976;BME280;58635;51.198;6.010;2023-07-16T05:59:28;101054.22;;;23.87;45.51
70976;BME280;58635;51.198;6.010;2023-07-16T06:01:54;101066.59;;;23.91;44.90
70976;BME280;58635;51.198;6.010;2023-07-16T06:04:23;101055.72;;;23.98;44.86
70976;BME280;58635;51.198;6.010;2023-07-16T06:06:50;101058.31;;;24.03;44.68
70976;BME280;58635;51.198;6.010;2023-07-16T06:09:16;101072.88;;;24.01;44.57
70976;BME280;58635;51.198;6.010;2023-07-16T06:11:46;101069.16;;;24.07;44.30
70976;BME280;58635;51.198;6.010;2023-07-16T06:14:12;101068.31;;;24.11;43.91
70976;BME280;58635;51.198;6.010;2023-07-16T06:16:39;101073.78;;;24.20;43.98
70976;BME280;58635;51.198;6.010;2023-07-16T06:19:05;101079.81;;;24.26;43.57
70976;BME280;58635;51.198;6.010;2023-07-16T06:21:32;101085.06;;;24.36;43.36
70976;BME280;58635;51.198;6.010;2023-07-16T06:23:58;101084.50;;;24.39;42.53
70976;BME280;58635;51.198;6.010;2023-07-16T06:26:25;101078.75;;;24.32;42.71
70976;BME280;58635;51.198;6.010;2023-07-16T06:28:51;101084.31;;;24.25;42.75
70976;BME280;58635;51.198;6.010;2023-07-16T06:31:18;101079.75;;;24.36;42.77
70976;BME280;58635;51.198;6.010;2023-07-16T06:33:44;101091.31;;;24.45;42.49
70976;BME280;58635;51.198;6.010;2023-07-16T06:36:13;101085.66;;;24.57;42.31
70976;BME280;58635;51.198;6.010;2023-07-16T06:38:39;101094.84;;;24.64;42.12
70976;BME280;58635;51.198;6.010;2023-07-16T06:41:06;101092.31;;;24.78;41.94
70976;BME280;58635;51.198;6.010;2023-07-16T06:43:32;101092.50;;;24.87;42.26
70976;BME280;58635;51.198;6.010;2023-07-16T06:45:58;101093.44;;;24.96;41.87
70976;BME280;58635;51.198;6.010;2023-07-16T06:48:25;101098.97;;;24.99;41.19
70976;BME280;58635;51.198;6.010;2023-07-16T06:50:51;101097.88;;;25.05;40.71
70976;BME280;58635;51.198;6.010;2023-07-16T06:53:18;101102.38;;;25.05;41.04
70976;BME280;58635;51.198;6.010;2023-07-16T06:55:44;101101.25;;;25.11;40.79
70976;BME280;58635;51.198;6.010;2023-07-16T06:58:11;101109.59;;;25.23;41.13
70976;BME280;58635;51.198;6.010;2023-07-16T07:00:37;101108.91;;;25.36;41.02
70976;BME280;58635;51.198;6.010;2023-07-16T07:03:04;101106.38;;;25.45;40.47
70976;BME280;58635;51.198;6.010;2023-07-16T07:05:31;101107.19;;;25.46;40.24
70976;BME280;58635;51.198;6.010;2023-07-16T07:07:59;101105.16;;;25.56;40.37
70976;BME280;58635;51.198;6.010;2023-07-16T07:10:25;101112.28;;;25.80;40.09
70976;BME280;58635;51.198;6.010;2023-07-16T07:12:52;101101.78;;;25.93;39.52
70976;BME280;58635;51.198;6.010;2023-07-16T07:15:18;101113.56;;;26.01;39.41
70976;BME280;58635;51.198;6.010;2023-07-16T07:17:45;101109.84;;;26.02;38.93
70976;BME280;58635;51.198;6.010;2023-07-16T07:20:13;101117.94;;;25.92;38.79
70976;BME280;58635;51.198;6.010;2023-07-16T07:22:39;101113.16;;;25.94;38.96
70976;BME280;58635;51.198;6.010;2023-07-16T07:25:06;101119.16;;;26.00;39.67
70976;BME280;58635;51.198;6.010;2023-07-16T07:27:51;101116.28;;;26.15;39.21
70976;BME280;58635;51.198;6.010;2023-07-16T07:30:18;101117.19;;;26.24;39.22
70976;BME280;58635;51.198;6.010;2023-07-16T07:32:45;101124.66;;;26.41;38.76
70976;BME280;58635;51.198;6.010;2023-07-16T07:35:11;101121.03;;;26.50;38.75
70976;BME280;58635;51.198;6.010;2023-07-16T07:37:38;101126.75;;;26.71;38.84
70976;BME280;58635;51.198;6.010;2023-07-16T07:40:05;101126.88;;;26.94;37.90
70976;BME280;58635;51.198;6.010;2023-07-16T07:42:34;101122.09;;;27.09;38.17
70976;BME280;58635;51.198;6.010;2023-07-16T07:45:01;101126.31;;;27.24;37.38
70976;BME280;58635;51.198;6.010;2023-07-16T07:47:27;101124.53;;;27.20;37.48
70976;BME280;58635;51.198;6.010;2023-07-16T07:49:54;101127.78;;;27.17;37.32
70976;BME280;58635;51.198;6.010;2023-07-16T07:52:20;101135.94;;;27.20;37.11
70976;BME280;58635;51.198;6.010;2023-07-16T07:54:46;101130.47;;;27.03;37.11
70976;BME280;58635;51.198;6.010;2023-07-16T07:57:13;101126.59;;;26.95;37.54
70976;BME280;58635;51.198;6.010;2023-07-16T07:59:39;101130.66;;;27.06;37.43
70976;BME280;58635;51.198;6.010;2023-07-16T08:02:06;101127.50;;;27.18;37.36
70976;BME280;58635;51.198;6.010;2023-07-16T08:04:32;101130.44;;;27.17;37.49
70976;BME280;58635;51.198;6.010;2023-07-16T08:06:58;101127.09;;;27.11;37.32
70976;BME280;58635;51.198;6.010;2023-07-16T08:09:28;101133.59;;;27.05;37.31
70976;BME280;58635;51.198;6.010;2023-07-16T08:11:54;101133.16;;;26.98;37.60
70976;BME280;58635;51.198;6.010;2023-07-16T08:14:21;101141.44;;;26.96;37.73
70976;BME280;58635;51.198;6.010;2023-07-16T08:16:47;101140.75;;;26.91;37.24
70976;BME280;58635;51.198;6.010;2023-07-16T08:19:13;101148.59;;;26.68;37.80
70976;BME280;58635;51.198;6.010;2023-07-16T08:21:48;101143.72;;;26.43;37.72
70976;BME280;58635;51.198;6.010;2023-07-16T08:24:14;101147.16;;;26.24;37.86
70976;BME280;58635;51.198;6.010;2023-07-16T08:26:41;101145.81;;;26.08;38.68
70976;BME280;58635;51.198;6.010;2023-07-16T08:29:07;101152.19;;;26.07;38.47
70976;BME280;58635;51.198;6.010;2023-07-16T08:31:36;101158.88;;;26.05;38.68
70976;BME280;58635;51.198;6.010;2023-07-16T08:34:15;101164.59;;;25.93;38.94
70976;BME280;58635;51.198;6.010;2023-07-16T08:36:41;101156.34;;;26.13;39.04
70976;BME280;58635;51.198;6.010;2023-07-16T08:39:08;101159.56;;;26.29;38.25
70976;BME280;58635;51.198;6.010;2023-07-16T08:41:35;101159.41;;;26.39;38.24
70976;BME280;58635;51.198;6.010;2023-07-16T08:44:01;101162.38;;;26.51;38.46
70976;BME280;58635;51.198;6.010;2023-07-16T08:46:28;101149.38;;;26.69;38.10
70976;BME280;58635;51.198;6.010;2023-07-16T08:48:55;101146.25;;;26.80;38.24
70976;BME280;58635;51.198;6.010;2023-07-16T08:51:23;101155.97;;;26.99;37.86
70976;BME280;58635;51.198;6.010;2023-07-16T08:53:50;101149.41;;;27.10;37.63
70976;BME280;58635;51.198;6.010;2023-07-16T08:56:16;101169.50;;;27.16;37.22
70976;BME280;58635;51.198;6.010;2023-07-16T08:58:43;101157.78;;;27.03;37.25
70976;BME280;58635;51.198;6.010;2023-07-16T09:01:11;101157.75;;;26.90;37.27
70976;BME280;58635;51.198;6.010;2023-07-16T09:03:38;101169.16;;;26.76;37.49
70976;BME280;58635;51.198;6.010;2023-07-16T09:06:05;101162.22;;;26.62;37.62
70976;BME280;58635;51.198;6.010;2023-07-16T09:08:31;101155.72;;;26.54;38.22
70976;BME280;58635;51.198;6.010;2023-07-16T09:10:58;101155.00;;;26.48;38.24
70976;BME280;58635;51.198;6.010;2023-07-16T09:13:25;101160.81;;;26.50;37.97
70976;BME280;58635;51.198;6.010;2023-07-16T09:15:54;101161.03;;;26.54;37.82
70976;BME280;58635;51.198;6.010;2023-07-16T09:18:22;101163.97;;;26.52;37.74
70976;BME280;58635;51.198;6.010;2023-07-16T09:20:57;101158.44;;;26.49;37.60
70976;BME280;58635;51.198;6.010;2023-07-16T09:23:25;101166.63;;;26.52;37.73
70976;BME280;58635;51.198;6.010;2023-07-16T09:25:56;101164.22;;;26.70;37.63
70976;BME280;58635;51.198;6.010;2023-07-16T09:28:22;101167.78;;;26.93;37.79
70976;BME280;58635;51.198;6.010;2023-07-16T09:30:50;101164.06;;;27.21;37.73
70976;BME280;58635;51.198;6.010;2023-07-16T09:35:44;101171.84;;;27.73;36.47
70976;BME280;58635;51.198;6.010;2023-07-16T09:38:11;101166.69;;;27.76;35.85
70976;BME280;58635;51.198;6.010;2023-07-16T09:40:38;101176.16;;;27.68;35.96
70976;BME280;58635;51.198;6.010;2023-07-16T09:43:06;101180.88;;;27.58;35.93
70976;BME280;58635;51.198;6.010;2023-07-16T09:45:32;101171.44;;;27.52;35.52
70976;BME280;58635;51.198;6.010;2023-07-16T09:47:59;101174.50;;;27.45;35.73
70976;BME280;58635;51.198;6.010;2023-07-16T09:50:28;101172.44;;;27.42;35.92
70976;BME280;58635;51.198;6.010;2023-07-16T09:52:57;101183.53;;;27.44;36.06
70976;BME280;58635;51.198;6.010;2023-07-16T09:55:24;101167.81;;;27.34;36.23
70976;BME280;58635;51.198;6.010;2023-07-16T09:57:53;101172.84;;;27.35;36.56
70976;BME280;58635;51.198;6.010;2023-07-16T10:00:22;101183.75;;;27.48;36.30
70976;BME280;58635;51.198;6.010;2023-07-16T10:02:49;101182.66;;;27.62;35.91
70976;BME280;58635;51.198;6.010;2023-07-16T10:05:19;101173.81;;;27.67;35.79
70976;BME280;58635;51.198;6.010;2023-07-16T10:07:50;101171.63;;;27.83;35.99
70976;BME280;58635;51.198;6.010;2023-07-16T10:10:17;101177.38;;;27.99;35.66
70976;BME280;58635;51.198;6.010;2023-07-16T10:12:58;101175.56;;;28.08;35.66
70976;BME280;58635;51.198;6.010;2023-07-16T10:15:29;101176.22;;;28.13;35.37
70976;BME280;58635;51.198;6.010;2023-07-16T10:17:56;101185.78;;;28.14;34.86
70976;BME280;58635;51.198;6.010;2023-07-16T10:22:58;101189.97;;;28.07;34.87
70976;BME280;58635;51.198;6.010;2023-07-16T10:25:27;101184.81;;;28.10;34.69
70976;BME280;58635;51.198;6.010;2023-07-16T10:27:54;101187.34;;;28.15;34.93
70976;BME280;58635;51.198;6.010;2023-07-16T10:30:21;101188.31;;;28.33;34.63
70976;BME280;58635;51.198;6.010;2023-07-16T10:32:51;101193.31;;;28.35;34.50
70976;BME280;58635;51.198;6.010;2023-07-16T10:35:18;101209.88;;;28.32;34.49
70976;BME280;58635;51.198;6.010;2023-07-16T10:37:45;101202.72;;;28.18;33.86
70976;BME280;58635;51.198;6.010;2023-07-16T10:40:12;101202.38;;;27.98;34.01
70976;BME280;58635;51.198;6.010;2023-07-16T10:42:41;101209.88;;;27.82;34.72
70976;BME280;58635;51.198;6.010;2023-07-16T10:45:08;101209.84;;;27.73;34.78
70976;BME280;58635;51.198;6.010;2023-07-16T10:47:50;101210.00;;;27.77;35.02
70976;BME280;58635;51.198;6.010;2023-07-16T10:50:18;101206.38;;;27.73;35.11
70976;BME280;58635;51.198;6.010;2023-07-16T10:52:45;101207.06;;;27.78;34.88
70976;BME280;58635;51.198;6.010;2023-07-16T10:55:11;101201.34;;;27.85;34.93
70976;BME280;58635;51.198;6.010;2023-07-16T10:57:37;101199.59;;;28.03;35.36
70976;BME280;58635;51.198;6.010;2023-07-16T11:00:04;101205.25;;;28.23;34.52
70976;BME280;58635;51.198;6.010;2023-07-16T11:02:31;101217.13;;;28.40;34.62
70976;BME280;58635;51.198;6.010;2023-07-16T11:04:57;101217.09;;;28.53;34.13
70976;BME280;58635;51.198;6.010;2023-07-16T11:07:24;101221.78;;;28.57;33.48
70976;BME280;58635;51.198;6.010;2023-07-16T11:09:52;101221.44;;;28.49;33.54
70976;BME280;58635;51.198;6.010;2023-07-16T11:12:22;101224.81;;;28.41;33.00
70976;BME280;58635;51.198;6.010;2023-07-16T11:14:51;101224.88;;;28.28;32.98
70976;BME280;58635;51.198;6.010;2023-07-16T11:17:19;101232.50;;;28.07;33.38
70976;BME280;58635;51.198;6.010;2023-07-16T11:19:48;101226.97;;;28.03;34.01
70976;BME280;58635;51.198;6.010;2023-07-16T11:22:16;101224.06;;;28.27;33.86
70976;BME280;58635;51.198;6.010;2023-07-16T11:27:14;101232.78;;;28.64;33.16
70976;BME280;58635;51.198;6.010;2023-07-16T11:29:52;101233.09;;;28.62;33.02
70976;BME280;58635;51.198;6.010;2023-07-16T11:32:32;101229.59;;;28.53;33.40
70976;BME280;58635;51.198;6.010;2023-07-16T11:35:00;101235.22;;;28.51;33.48
70976;BME280;58635;51.198;6.010;2023-07-16T11:37:28;101243.09;;;28.57;33.43
70976;BME280;58635;51.198;6.010;2023-07-16T11:40:05;101241.56;;;28.64;33.29
70976;BME280;58635;51.198;6.010;2023-07-16T11:42:37;101240.22;;;28.75;33.36
70976;BME280;58635;51.198;6.010;2023-07-16T11:45:14;101246.56;;;28.88;33.06
70976;BME280;58635;51.198;6.010;2023-07-16T11:47:40;101254.19;;;29.03;33.25
70976;BME280;58635;51.198;6.010;2023-07-16T11:50:07;101240.78;;;29.17;32.51
70976;BME280;58635;51.198;6.010;2023-07-16T11:52:54;101249.50;;;29.40;32.66
70976;BME280;58635;51.198;6.010;2023-07-16T11:55:22;101253.94;;;29.53;32.38
70976;BME280;58635;51.198;6.010;2023-07-16T11:57:48;101261.94;;;29.53;31.92
70976;BME280;58635;51.198;6.010;2023-07-16T12:00:15;101258.34;;;29.49;31.80
70976;BME280;58635;51.198;6.010;2023-07-16T12:02:41;101257.31;;;29.36;31.79
70976;BME280;58635;51.198;6.010;2023-07-16T12:05:08;101254.88;;;29.18;32.07
70976;BME280;58635;51.198;6.010;2023-07-16T12:07:36;101255.19;;;29.16;32.06
70976;BME280;58635;51.198;6.010;2023-07-16T12:10:03;101254.75;;;29.23;32.47
70976;BME280;58635;51.198;6.010;2023-07-16T12:12:30;101253.56;;;29.37;32.32
70976;BME280;58635;51.198;6.010;2023-07-16T12:14:57;101251.91;;;29.59;31.71
70976;BME280;58635;51.198;6.010;2023-07-16T12:17:23;101251.19;;;29.76;31.52
70976;BME280;58635;51.198;6.010;2023-07-16T12:19:50;101255.41;;;29.77;31.11
70976;BME280;58635;51.198;6.010;2023-07-16T12:22:17;101255.88;;;29.79;31.20
70976;BME280;58635;51.198;6.010;2023-07-16T12:24:45;101249.94;;;29.90;31.25
70976;BME280;58635;51.198;6.010;2023-07-16T12:27:11;101254.69;;;30.28;31.16
70976;BME280;58635;51.198;6.010;2023-07-16T12:29:38;101242.13;;;30.46;29.99
70976;BME280;58635;51.198;6.010;2023-07-16T12:32:05;101249.97;;;30.42;29.70
70976;BME280;58635;51.198;6.010;2023-07-16T12:34:31;101247.94;;;30.31;29.72
70976;BME280;58635;51.198;6.010;2023-07-16T12:36:58;101259.72;;;30.12;30.49
70976;BME280;58635;51.198;6.010;2023-07-16T12:39:24;101257.19;;;30.07;30.29
70976;BME280;58635;51.198;6.010;2023-07-16T12:41:50;101257.50;;;30.14;30.68
70976;BME280;58635;51.198;6.010;2023-07-16T12:44:19;101267.56;;;30.35;29.91
70976;BME280;58635;51.198;6.010;2023-07-16T12:46:45;101248.38;;;30.50;29.79
70976;BME280;58635;51.198;6.010;2023-07-16T12:49:11;101260.97;;;30.67;29.50
70976;BME280;58635;51.198;6.010;2023-07-16T12:51:38;101258.72;;;30.77;29.59
70976;BME280;58635;51.198;6.010;2023-07-16T12:54:05;101258.38;;;30.88;29.09
70976;BME280;58635;51.198;6.010;2023-07-16T12:56:31;101261.38;;;30.86;28.50
70976;BME280;58635;51.198;6.010;2023-07-16T12:58:58;101261.25;;;30.82;28.54
70976;BME280;58635;51.198;6.010;2023-07-16T13:01:25;101254.50;;;30.76;28.62
70976;BME280;58635;51.198;6.010;2023-07-16T13:03:51;101246.31;;;30.81;28.72
70976;BME280;58635;51.198;6.010;2023-07-16T13:06:17;101243.19;;;30.79;28.72